sensor_id;sensor_type;location;lat;lon;timestamp;temperature;humidity
48666;DHT22;34452;50.796;4.994;2022-09-16T00:02:18;14.60;99.90
48666;DHT22;34452;50.796;4.994;2022-09-16T00:04:43;14.70;99.90
48666;DHT22;34452;50.796;4.994;2022-09-16T00:07:09;14.60;99.90
48666;DHT22;34452;50.796;4.994;2022-09-16T00:09:36;14.60;99.90
48666;DHT22;34452;50.796;4.994;2022-09-16T00:12:03;14.60;99.90
48666;DHT22;34452;50.796;4.994;2022-09-16T00:14:29;14.60;99.90
48666;DHT22;34452;50.796;4.994;2022-09-16T00:16:55;14.70;99.90
48666;DHT22;34452;50.796;4.994;2022-09-16T00:19:21;14.70;99.90
48666;DHT22;34452;50.796;4.994;2022-09-16T00:21:47;14.70;99.90
48666;DHT22;34452;50.796;4.994;2022-09-16T00:24:14;14.70;99.90
48666;DHT22;34452;50.796;4.994;2022-09-16T00:26:41;14.70;99.90
48666;DHT22;34452;50.796;4.994;2022-09-16T00:29:08;14.70;99.90
48666;DHT22;34452;50.796;4.994;2022-09-16T00:31:34;14.80;99.90
48666;DHT22;34452;50.796;4.994;2022-09-16T00:34:00;14.70;99.90
48666;DHT22;34452;50.796;4.994;2022-09-16T00:36:26;14.70;99.90
48666;DHT22;34452;50.796;4.994;2022-09-16T00:38:53;14.70;99.90
48666;DHT22;34452;50.796;4.994;2022-09-16T00:41:24;14.70;99.90
48666;DHT22;34452;50.796;4.994;2022-09-16T00:43:54;14.70;99.90
48666;DHT22;34452;50.796;4.994;2022-09-16T00:46:38;14.70;99.90
48666;DHT22;34452;50.796;4.994;2022-09-16T00:49:25;14.80;99.90
48666;DHT22;34452;50.796;4.994;2022-09-16T00:51:56;14.70;99.90
48666;DHT22;34452;50.796;4.994;2022-09-16T00:54:23;14.80;99.90
48666;DHT22;34452;50.796;4.994;2022-09-16T00:56:53;14.70;99.90
48666;DHT22;34452;50.796;4.994;2022-09-16T00:59:25;14.70;99.90
48666;DHT22;34452;50.796;4.994;2022-09-16T01:01:54;14.60;99.90
48666;DHT22;34452;50.796;4.994;2022-09-16T01:07:03;14.50;99.90
48666;DHT22;34452;50.796;4.994;2022-09-16T01:09:29;14.50;99.90
48666;DHT22;34452;50.796;4.994;2022-09-16T01:11:56;14.50;99.90
48666;DHT22;34452;50.796;4.994;2022-09-16T01:14:23;14.40;99.90
48666;DHT22;34452;50.796;4.994;2022-09-16T01:17:16;14.40;99.90
48666;DHT22;34452;50.796;4.994;2022-09-16T01:25:07;14.20;99.90
48666;DHT22;34452;50.796;4.994;2022-09-16T01:39:27;14.00;99.90
48666;DHT22;34452;50.796;4.994;2022-09-16T01:53:45;13.90;99.90
48666;DHT22;34452;50.796;4.994;2022-09-16T01:56:20;13.90;99.90
48666;DHT22;34452;50.796;4.994;2022-09-16T01:58:55;14.00;99.90
48666;DHT22;34452;50.796;4.994;2022-09-16T02:01:31;13.90;99.90
48666;DHT22;34452;50.796;4.994;2022-09-16T02:04:03;13.90;99.90
48666;DHT22;34452;50.796;4.994;2022-09-16T02:06:30;14.00;99.90
48666;DHT22;34452;50.796;4.994;2022-09-16T02:09:03;14.00;99.90
48666;DHT22;34452;50.796;4.994;2022-09-16T02:11:29;14.00;99.90
48666;DHT22;34452;50.796;4.994;2022-09-16T02:14:09;14.00;99.90
48666;DHT22;34452;50.796;4.994;2022-09-16T02:16:44;14.00;99.90
48666;DHT22;34452;50.796;4.994;2022-09-16T02:19:15;13.90;99.90
48666;DHT22;34452;50.796;4.994;2022-09-16T02:21:46;13.80;99.90
48666;DHT22;34452;50.796;4.994;2022-09-16T02:24:16;13.80;99.90
48666;DHT22;34452;50.796;4.994;2022-09-16T02:26:47;13.80;99.90
48666;DHT22;34452;50.796;4.994;2022-09-16T02:29:20;13.80;99.90
48666;DHT22;34452;50.796;4.994;2022-09-16T02:31:47;13.80;99.90
48666;DHT22;34452;50.796;4.994;2022-09-16T02:34:17;13.80;99.90
48666;DHT22;34452;50.796;4.994;2022-09-16T02:36:46;13.80;99.90
48666;DHT22;34452;50.796;4.994;2022-09-16T02:39:19;13.80;99.90
48666;DHT22;34452;50.796;4.994;2022-09-16T02:41:46;13.80;99.90
48666;DHT22;34452;50.796;4.994;2022-09-16T02:44:12;13.80;99.90
48666;DHT22;34452;50.796;4.994;2022-09-16T02:49:48;13.80;99.90
48666;DHT22;34452;50.796;4.994;2022-09-16T02:52:36;13.90;99.90
48666;DHT22;34452;50.796;4.994;2022-09-16T02:55:21;13.90;99.90
48666;DHT22;34452;50.796;4.994;2022-09-16T02:57:49;13.90;99.90
48666;DHT22;34452;50.796;4.994;2022-09-16T03:00:15;13.80;99.90
48666;DHT22;34452;50.796;4.994;2022-09-16T03:02:41;13.80;99.90
48666;DHT22;34452;50.796;4.994;2022-09-16T03:05:07;13.80;99.90
48666;DHT22;34452;50.796;4.994;2022-09-16T03:07:35;13.80;99.90
48666;DHT22;34452;50.796;4.994;2022-09-16T03:10:01;13.80;99.90
48666;DHT22;34452;50.796;4.994;2022-09-16T03:26:45;13.80;99.90
48666;DHT22;34452;50.796;4.994;2022-09-16T03:32:12;13.70;99.90
48666;DHT22;34452;50.796;4.994;2022-09-16T03:37:33;13.70;99.90
48666;DHT22;34452;50.796;4.994;2022-09-16T03:40:08;13.70;99.90
48666;DHT22;34452;50.796;4.994;2022-09-16T03:42:38;13.70;99.90
48666;DHT22;34452;50.796;4.994;2022-09-16T03:45:05;13.60;99.90
48666;DHT22;34452;50.796;4.994;2022-09-16T03:47:31;13.60;99.90
48666;DHT22;34452;50.796;4.994;2022-09-16T03:49:57;13.60;99.90
48666;DHT22;34452;50.796;4.994;2022-09-16T03:52:23;13.40;99.90
48666;DHT22;34452;50.796;4.994;2022-09-16T03:54:48;13.40;99.90
48666;DHT22;34452;50.796;4.994;2022-09-16T03:57:14;13.30;99.90
48666;DHT22;34452;50.796;4.994;2022-09-16T03:59:40;13.30;99.90
48666;DHT22;34452;50.796;4.994;2022-09-16T04:02:06;13.30;99.90
48666;DHT22;34452;50.796;4.994;2022-09-16T04:04:32;13.20;99.90
48666;DHT22;34452;50.796;4.994;2022-09-16T04:06:57;13.20;99.90
48666;DHT22;34452;50.796;4.994;2022-09-16T04:09:23;13.20;99.90
48666;DHT22;34452;50.796;4.994;2022-09-16T04:11:49;13.20;99.90
48666;DHT22;34452;50.796;4.994;2022-09-16T04:14:15;13.20;99.90
48666;DHT22;34452;50.796;4.994;2022-09-16T04:16:40;13.20;99.90
48666;DHT22;34452;50.796;4.994;2022-09-16T04:19:06;13.20;99.90
48666;DHT22;34452;50.796;4.994;2022-09-16T04:21:32;13.30;99.90
48666;DHT22;34452;50.796;4.994;2022-09-16T04:23:58;13.20;99.90
48666;DHT22;34452;50.796;4.994;2022-09-16T04:26:24;13.20;99.90
48666;DHT22;34452;50.796;4.994;2022-09-16T04:28:52;13.20;99.90
48666;DHT22;34452;50.796;4.994;2022-09-16T04:31:19;13.20;99.90
48666;DHT22;34452;50.796;4.994;2022-09-16T04:33:44;13.10;99.90
48666;DHT22;34452;50.796;4.994;2022-09-16T04:36:13;13.10;99.90
48666;DHT22;34452;50.796;4.994;2022-09-16T04:38:41;13.20;99.90
48666;DHT22;34452;50.796;4.994;2022-09-16T04:41:11;13.20;99.90
48666;DHT22;34452;50.796;4.994;2022-09-16T04:43:38;13.20;99.90
48666;DHT22;34452;50.796;4.994;2022-09-16T04:46:04;13.20;99.90
48666;DHT22;34452;50.796;4.994;2022-09-16T04:48:30;13.20;99.90
48666;DHT22;34452;50.796;4.994;2022-09-16T04:51:10;13.20;99.90
48666;DHT22;34452;50.796;4.994;2022-09-16T04:53:38;13.10;99.90
48666;DHT22;34452;50.796;4.994;2022-09-16T04:56:05;13.10;99.90
48666;DHT22;34452;50.796;4.994;2022-09-16T04:58:30;13.10;99.90
48666;DHT22;34452;50.796;4.994;2022-09-16T05:01:03;13.10;99.90
48666;DHT22;34452;50.796;4.994;2022-09-16T05:03:29;13.00;99.90
48666;DHT22;34452;50.796;4.994;2022-09-16T05:06:03;13.10;99.90
48666;DHT22;34452;50.796;4.994;2022-09-16T05:08:29;13.10;99.90
48666;DHT22;34452;50.796;4.994;2022-09-16T05:10:55;13.20;99.90
48666;DHT22;34452;50.796;4.994;2022-09-16T05:13:22;13.10;99.90
48666;DHT22;34452;50.796;4.994;2022-09-16T05:15:47;13.10;99.90
48666;DHT22;34452;50.796;4.994;2022-09-16T05:18:13;13.20;99.90
48666;DHT22;34452;50.796;4.994;2022-09-16T05:20:39;13.20;99.90
48666;DHT22;34452;50.796;4.994;2022-09-16T05:23:05;13.20;99.90
48666;DHT22;34452;50.796;4.994;2022-09-16T05:25:32;13.30;99.90
48666;DHT22;34452;50.796;4.994;2022-09-16T05:27:58;13.30;99.90
48666;DHT22;34452;50.796;4.994;2022-09-16T05:30:25;13.30;99.90
48666;DHT22;34452;50.796;4.994;2022-09-16T05:32:53;13.30;99.90
48666;DHT22;34452;50.796;4.994;2022-09-16T05:35:19;13.30;99.90
48666;DHT22;34452;50.796;4.994;2022-09-16T05:37:45;13.40;99.90
48666;DHT22;34452;50.796;4.994;2022-09-16T05:40:11;13.40;99.90
48666;DHT22;34452;50.796;4.994;2022-09-16T05:42:36;13.40;99.90
48666;DHT22;34452;50.796;4.994;2022-09-16T05:45:02;13.40;99.90
48666;DHT22;34452;50.796;4.994;2022-09-16T05:47:28;13.50;99.90
48666;DHT22;34452;50.796;4.994;2022-09-16T05:49:54;13.50;99.90
48666;DHT22;34452;50.796;4.994;2022-09-16T05:52:20;13.50;99.90
48666;DHT22;34452;50.796;4.994;2022-09-16T05:54:46;13.50;99.90
48666;DHT22;34452;50.796;4.994;2022-09-16T05:57:11;13.60;99.90
48666;DHT22;34452;50.796;4.994;2022-09-16T05:59:38;13.50;99.90
48666;DHT22;34452;50.796;4.994;2022-09-16T06:02:04;13.50;99.90
48666;DHT22;34452;50.796;4.994;2022-09-16T06:04:30;13.50;99.90
48666;DHT22;34452;50.796;4.994;2022-09-16T06:06:56;13.50;99.90
48666;DHT22;34452;50.796;4.994;2022-09-16T06:09:23;13.50;99.90
48666;DHT22;34452;50.796;4.994;2022-09-16T06:11:51;13.50;99.90
48666;DHT22;34452;50.796;4.994;2022-09-16T06:14:18;13.50;99.90
48666;DHT22;34452;50.796;4.994;2022-09-16T06:16:44;13.50;99.90
48666;DHT22;34452;50.796;4.994;2022-09-16T06:19:11;13.50;99.90
48666;DHT22;34452;50.796;4.994;2022-09-16T06:21:38;13.50;99.90
48666;DHT22;34452;50.796;4.994;2022-09-16T06:24:05;13.60;99.90
48666;DHT22;34452;50.796;4.994;2022-09-16T06:26:43;13.60;99.90
48666;DHT22;34452;50.796;4.994;2022-09-16T06:29:10;13.60;99.90
48666;DHT22;34452;50.796;4.994;2022-09-16T06:31:36;13.70;99.90
48666;DHT22;34452;50.796;4.994;2022-09-16T06:34:03;13.70;99.90
48666;DHT22;34452;50.796;4.994;2022-09-16T06:36:32;13.60;99.90
48666;DHT22;34452;50.796;4.994;2022-09-16T06:38:58;13.70;99.90
48666;DHT22;34452;50.796;4.994;2022-09-16T06:41:24;13.60;99.90
48666;DHT22;34452;50.796;4.994;2022-09-16T06:43:50;13.70;99.90
48666;DHT22;34452;50.796;4.994;2022-09-16T06:46:20;13.70;99.90
48666;DHT22;34452;50.796;4.994;2022-09-16T06:48:48;13.70;99.90
48666;DHT22;34452;50.796;4.994;2022-09-16T06:51:18;13.70;99.90
48666;DHT22;34452;50.796;4.994;2022-09-16T06:53:44;13.60;99.90
48666;DHT22;34452;50.796;4.994;2022-09-16T06:56:13;13.50;99.90
48666;DHT22;34452;50.796;4.994;2022-09-16T06:58:42;13.50;99.90
48666;DHT22;34452;50.796;4.994;2022-09-16T07:01:11;13.50;99.90
48666;DHT22;34452;50.796;4.994;2022-09-16T07:03:55;13.50;99.90
48666;DHT22;34452;50.796;4.994;2022-09-16T07:06:23;13.40;99.90
48666;DHT22;34452;50.796;4.994;2022-09-16T07:08:50;13.40;99.90
48666;DHT22;34452;50.796;4.994;2022-09-16T07:11:20;13.50;99.90
48666;DHT22;34452;50.796;4.994;2022-09-16T07:13:48;13.60;99.90
48666;DHT22;34452;50.796;4.994;2022-09-16T07:16:16;13.60;99.90
48666;DHT22;34452;50.796;4.994;2022-09-16T07:18:43;13.60;99.90
48666;DHT22;34452;50.796;4.994;2022-09-16T07:21:25;13.60;99.90
48666;DHT22;34452;50.796;4.994;2022-09-16T07:23:55;13.70;99.90
48666;DHT22;34452;50.796;4.994;2022-09-16T07:26:24;13.70;99.90
48666;DHT22;34452;50.796;4.994;2022-09-16T07:28:52;13.70;99.90
48666;DHT22;34452;50.796;4.994;2022-09-16T07:31:22;13.70;99.90
48666;DHT22;34452;50.796;4.994;2022-09-16T07:33:50;13.70;99.90
48666;DHT22;34452;50.796;4.994;2022-09-16T07:36:18;13.70;99.90
48666;DHT22;34452;50.796;4.994;2022-09-16T07:38:45;13.70;99.90
48666;DHT22;34452;50.796;4.994;2022-09-16T07:41:12;13.70;99.90
48666;DHT22;34452;50.796;4.994;2022-09-16T07:43:39;13.70;99.90
48666;DHT22;34452;50.796;4.994;2022-09-16T07:46:05;13.60;99.90
48666;DHT22;34452;50.796;4.994;2022-09-16T07:48:32;13.70;99.90
48666;DHT22;34452;50.796;4.994;2022-09-16T07:51:00;13.60;99.90
48666;DHT22;34452;50.796;4.994;2022-09-16T07:53:27;13.60;99.90
48666;DHT22;34452;50.796;4.994;2022-09-16T07:55:55;13.60;99.90
48666;DHT22;34452;50.796;4.994;2022-09-16T07:58:22;13.60;99.90
48666;DHT22;34452;50.796;4.994;2022-09-16T08:00:48;13.70;99.90
48666;DHT22;34452;50.796;4.994;2022-09-16T08:03:15;13.70;99.90
48666;DHT22;34452;50.796;4.994;2022-09-16T08:05:41;13.70;99.90
48666;DHT22;34452;50.796;4.994;2022-09-16T08:08:06;13.70;99.90
48666;DHT22;34452;50.796;4.994;2022-09-16T08:10:32;13.80;99.90
48666;DHT22;34452;50.796;4.994;2022-09-16T08:12:59;13.90;99.90
48666;DHT22;34452;50.796;4.994;2022-09-16T08:15:24;13.90;99.90
48666;DHT22;34452;50.796;4.994;2022-09-16T08:17:50;13.80;99.90
48666;DHT22;34452;50.796;4.994;2022-09-16T08:20:16;13.80;99.90
48666;DHT22;34452;50.796;4.994;2022-09-16T08:22:41;13.80;99.90
48666;DHT22;34452;50.796;4.994;2022-09-16T08:25:07;13.80;99.90
48666;DHT22;34452;50.796;4.994;2022-09-16T08:27:34;13.80;99.90
48666;DHT22;34452;50.796;4.994;2022-09-16T08:30:01;13.80;99.90
48666;DHT22;34452;50.796;4.994;2022-09-16T08:32:26;13.80;99.90
48666;DHT22;34452;50.796;4.994;2022-09-16T08:34:52;13.90;99.90
48666;DHT22;34452;50.796;4.994;2022-09-16T08:37:18;14.00;99.90
48666;DHT22;34452;50.796;4.994;2022-09-16T08:39:46;14.00;99.90
48666;DHT22;34452;50.796;4.994;2022-09-16T08:51:04;14.10;99.90
48666;DHT22;34452;50.796;4.994;2022-09-16T08:53:50;14.10;99.90
48666;DHT22;34452;50.796;4.994;2022-09-16T08:56:20;14.10;99.90
48666;DHT22;34452;50.796;4.994;2022-09-16T08:58:50;14.00;99.90
48666;DHT22;34452;50.796;4.994;2022-09-16T09:01:31;14.00;99.90
48666;DHT22;34452;50.796;4.994;2022-09-16T09:03:59;13.90;99.90
48666;DHT22;34452;50.796;4.994;2022-09-16T09:06:42;13.80;99.90
48666;DHT22;34452;50.796;4.994;2022-09-16T09:12:36;13.80;99.90
48666;DHT22;34452;50.796;4.994;2022-09-16T09:15:25;13.80;99.90
48666;DHT22;34452;50.796;4.994;2022-09-16T09:35:06;14.00;99.90
48666;DHT22;34452;50.796;4.994;2022-09-16T09:46:09;13.90;99.90
48666;DHT22;34452;50.796;4.994;2022-09-16T09:51:40;13.50;99.90
48666;DHT22;34452;50.796;4.994;2022-09-16T09:54:28;13.40;99.90
48666;DHT22;34452;50.796;4.994;2022-09-16T09:56:59;13.40;99.90
48666;DHT22;34452;50.796;4.994;2022-09-16T10:02:16;13.50;99.90
48666;DHT22;34452;50.796;4.994;2022-09-16T10:04:43;13.60;99.90
48666;DHT22;34452;50.796;4.994;2022-09-16T10:07:12;13.80;99.90
48666;DHT22;34452;50.796;4.994;2022-09-16T10:09:47;13.90;99.90
48666;DHT22;34452;50.796;4.994;2022-09-16T10:12:24;14.10;99.90
48666;DHT22;34452;50.796;4.994;2022-09-16T10:14:50;14.10;99.90
48666;DHT22;34452;50.796;4.994;2022-09-16T10:17:16;14.00;99.90
48666;DHT22;34452;50.796;4.994;2022-09-16T10:20:03;14.10;99.90
48666;DHT22;34452;50.796;4.994;2022-09-16T10:22:33;14.20;99.90
48666;DHT22;34452;50.796;4.994;2022-09-16T10:25:01;14.20;99.90
48666;DHT22;34452;50.796;4.994;2022-09-16T10:27:29;14.30;99.90
48666;DHT22;34452;50.796;4.994;2022-09-16T10:30:19;14.40;99.90
48666;DHT22;34452;50.796;4.994;2022-09-16T10:32:53;14.60;99.90
48666;DHT22;34452;50.796;4.994;2022-09-16T10:35:38;14.80;99.90
48666;DHT22;34452;50.796;4.994;2022-09-16T10:38:18;14.90;99.90
48666;DHT22;34452;50.796;4.994;2022-09-16T10:41:05;15.10;99.90
48666;DHT22;34452;50.796;4.994;2022-09-16T10:43:31;15.20;99.90
48666;DHT22;34452;50.796;4.994;2022-09-16T10:45:57;15.20;99.90
48666;DHT22;34452;50.796;4.994;2022-09-16T10:48:26;15.20;99.90
48666;DHT22;34452;50.796;4.994;2022-09-16T10:51:24;15.30;99.90
48666;DHT22;34452;50.796;4.994;2022-09-16T10:53:54;15.50;99.90
48666;DHT22;34452;50.796;4.994;2022-09-16T10:56:23;15.80;99.90
48666;DHT22;34452;50.796;4.994;2022-09-16T10:59:03;16.10;99.90
48666;DHT22;34452;50.796;4.994;2022-09-16T11:01:37;16.20;99.90
48666;DHT22;34452;50.796;4.994;2022-09-16T11:10:10;15.70;99.90
48666;DHT22;34452;50.796;4.994;2022-09-16T11:29:28;14.30;99.90
48666;DHT22;34452;50.796;4.994;2022-09-16T11:49:17;15.40;99.90
48666;DHT22;34452;50.796;4.994;2022-09-16T11:54:44;15.70;99.90
48666;DHT22;34452;50.796;4.994;2022-09-16T11:57:18;15.70;99.90
48666;DHT22;34452;50.796;4.994;2022-09-16T11:59:49;16.00;99.90
48666;DHT22;34452;50.796;4.994;2022-09-16T12:02:20;16.20;99.90
48666;DHT22;34452;50.796;4.994;2022-09-16T12:04:55;16.10;99.90
48666;DHT22;34452;50.796;4.994;2022-09-16T12:07:25;16.00;99.90
48666;DHT22;34452;50.796;4.994;2022-09-16T12:09:58;16.00;99.90
48666;DHT22;34452;50.796;4.994;2022-09-16T12:12:31;15.80;99.90
48666;DHT22;34452;50.796;4.994;2022-09-16T12:15:03;15.70;99.90
48666;DHT22;34452;50.796;4.994;2022-09-16T12:17:34;15.50;99.90
48666;DHT22;34452;50.796;4.994;2022-09-16T12:20:18;15.50;99.90
48666;DHT22;34452;50.796;4.994;2022-09-16T12:22:51;15.50;99.90
48666;DHT22;34452;50.796;4.994;2022-09-16T12:28:30;15.40;99.90
48666;DHT22;34452;50.796;4.994;2022-09-16T12:34:01;15.50;99.90
48666;DHT22;34452;50.796;4.994;2022-09-16T12:36:32;15.50;99.90
48666;DHT22;34452;50.796;4.994;2022-09-16T12:39:00;15.50;99.90
48666;DHT22;34452;50.796;4.994;2022-09-16T12:41:50;15.50;99.90
48666;DHT22;34452;50.796;4.994;2022-09-16T12:47:31;15.70;99.90
48666;DHT22;34452;50.796;4.994;2022-09-16T12:50:27;15.60;99.90
48666;DHT22;34452;50.796;4.994;2022-09-16T13:01:42;15.40;99.90
48666;DHT22;34452;50.796;4.994;2022-09-16T13:04:15;15.30;99.90
48666;DHT22;34452;50.796;4.994;2022-09-16T13:06:58;15.10;99.90
48666;DHT22;34452;50.796;4.994;2022-09-16T13:09:44;14.80;99.90
48666;DHT22;34452;50.796;4.994;2022-09-16T13:12:30;14.20;99.90
48666;DHT22;34452;50.796;4.994;2022-09-16T13:15:00;13.50;99.90
48666;DHT22;34452;50.796;4.994;2022-09-16T13:20:22;12.50;99.90
48666;DHT22;34452;50.796;4.994;2022-09-16T13:25:58;12.10;99.90
48666;DHT22;34452;50.796;4.994;2022-09-16T13:28:34;11.90;99.90
48666;DHT22;34452;50.796;4.994;2022-09-16T13:36:51;11.90;99.90
48666;DHT22;34452;50.796;4.994;2022-09-16T13:39:29;11.90;99.90
48666;DHT22;34452;50.796;4.994;2022-09-16T13:41:55;12.10;99.90
48666;DHT22;34452;50.796;4.994;2022-09-16T13:44:40;12.20;99.90
48666;DHT22;34452;50.796;4.994;2022-09-16T13:50:10;12.60;99.90
48666;DHT22;34452;50.796;4.994;2022-09-16T13:52:38;12.80;99.90
48666;DHT22;34452;50.796;4.994;2022-09-16T13:55:07;13.00;99.90
48666;DHT22;34452;50.796;4.994;2022-09-16T14:00:57;13.40;99.90
48666;DHT22;34452;50.796;4.994;2022-09-16T14:03:29;13.50;99.90
48666;DHT22;34452;50.796;4.994;2022-09-16T14:09:27;13.70;99.90
48666;DHT22;34452;50.796;4.994;2022-09-16T14:14:38;13.90;99.90
48666;DHT22;34452;50.796;4.994;2022-09-16T14:17:24;14.00;99.90
48666;DHT22;34452;50.796;4.994;2022-09-16T14:19:55;14.20;99.90
48666;DHT22;34452;50.796;4.994;2022-09-16T14:22:22;14.10;99.90
48666;DHT22;34452;50.796;4.994;2022-09-16T14:24:52;14.00;99.90
48666;DHT22;34452;50.796;4.994;2022-09-16T14:27:22;13.90;99.90
48666;DHT22;34452;50.796;4.994;2022-09-16T14:32:55;14.00;99.90
48666;DHT22;34452;50.796;4.994;2022-09-16T14:35:23;14.00;99.90
48666;DHT22;34452;50.796;4.994;2022-09-16T14:37:54;14.00;99.90
48666;DHT22;34452;50.796;4.994;2022-09-16T14:40:22;14.10;99.90
48666;DHT22;34452;50.796;4.994;2022-09-16T14:42:53;13.90;99.90
48666;DHT22;34452;50.796;4.994;2022-09-16T14:45:20;13.90;99.90
48666;DHT22;34452;50.796;4.994;2022-09-16T14:47:47;13.80;99.90
48666;DHT22;34452;50.796;4.994;2022-09-16T14:50:20;13.80;99.90
48666;DHT22;34452;50.796;4.994;2022-09-16T14:52:58;13.70;99.90
48666;DHT22;34452;50.796;4.994;2022-09-16T14:55:27;13.80;99.90
48666;DHT22;34452;50.796;4.994;2022-09-16T14:57:55;14.00;99.90
48666;DHT22;34452;50.796;4.994;2022-09-16T15:00:21;14.30;99.90
48666;DHT22;34452;50.796;4.994;2022-09-16T15:02:54;14.30;99.90
48666;DHT22;34452;50.796;4.994;2022-09-16T15:05:36;14.30;99.90
48666;DHT22;34452;50.796;4.994;2022-09-16T15:10:54;14.40;99.90
48666;DHT22;34452;50.796;4.994;2022-09-16T15:13:25;14.60;99.90
48666;DHT22;34452;50.796;4.994;2022-09-16T15:16:12;14.60;99.90
48666;DHT22;34452;50.796;4.994;2022-09-16T15:18:49;14.60;99.90
48666;DHT22;34452;50.796;4.994;2022-09-16T15:21:20;14.60;99.90
48666;DHT22;34452;50.796;4.994;2022-09-16T15:23:49;14.60;99.90
48666;DHT22;34452;50.796;4.994;2022-09-16T15:26:18;14.60;99.90
48666;DHT22;34452;50.796;4.994;2022-09-16T15:29:04;14.60;99.90
48666;DHT22;34452;50.796;4.994;2022-09-16T15:31:35;14.90;99.90
48666;DHT22;34452;50.796;4.994;2022-09-16T15:34:18;15.30;99.90
48666;DHT22;34452;50.796;4.994;2022-09-16T15:36:49;15.70;99.90
48666;DHT22;34452;50.796;4.994;2022-09-16T15:39:32;15.60;99.90
48666;DHT22;34452;50.796;4.994;2022-09-16T15:42:23;15.50;99.90
48666;DHT22;34452;50.796;4.994;2022-09-16T15:44:54;15.50;99.90
48666;DHT22;34452;50.796;4.994;2022-09-16T15:47:47;15.90;99.90
48666;DHT22;34452;50.796;4.994;2022-09-16T15:50:17;16.10;99.90
48666;DHT22;34452;50.796;4.994;2022-09-16T15:53:08;15.90;99.90
48666;DHT22;34452;50.796;4.994;2022-09-16T15:55:55;15.70;99.90
48666;DHT22;34452;50.796;4.994;2022-09-16T15:58:39;16.00;99.90
48666;DHT22;34452;50.796;4.994;2022-09-16T16:04:13;18.00;99.90
48666;DHT22;34452;50.796;4.994;2022-09-16T16:07:04;18.60;99.90
48666;DHT22;34452;50.796;4.994;2022-09-16T16:09:35;18.50;99.60
48666;DHT22;34452;50.796;4.994;2022-09-16T16:12:06;18.20;99.50
48666;DHT22;34452;50.796;4.994;2022-09-16T16:14:33;18.00;99.90
48666;DHT22;34452;50.796;4.994;2022-09-16T16:17:02;17.20;99.90
48666;DHT22;34452;50.796;4.994;2022-09-16T16:19:29;16.90;99.90
48666;DHT22;34452;50.796;4.994;2022-09-16T16:21:54;16.60;99.90
48666;DHT22;34452;50.796;4.994;2022-09-16T16:24:22;16.20;99.90
48666;DHT22;34452;50.796;4.994;2022-09-16T16:26:49;15.90;99.90
48666;DHT22;34452;50.796;4.994;2022-09-16T16:29:16;15.80;99.90
48666;DHT22;34452;50.796;4.994;2022-09-16T16:34:26;15.50;99.90
48666;DHT22;34452;50.796;4.994;2022-09-16T16:36:52;15.30;99.90
48666;DHT22;34452;50.796;4.994;2022-09-16T16:39:17;15.30;99.90
48666;DHT22;34452;50.796;4.994;2022-09-16T16:41:43;15.30;99.90
48666;DHT22;34452;50.796;4.994;2022-09-16T16:44:09;15.20;99.90
48666;DHT22;34452;50.796;4.994;2022-09-16T16:46:34;15.10;99.90
48666;DHT22;34452;50.796;4.994;2022-09-16T16:49:00;15.00;99.90
48666;DHT22;34452;50.796;4.994;2022-09-16T16:51:26;14.80;99.90
48666;DHT22;34452;50.796;4.994;2022-09-16T16:53:52;14.60;99.90
48666;DHT22;34452;50.796;4.994;2022-09-16T16:56:17;14.40;99.90
48666;DHT22;34452;50.796;4.994;2022-09-16T16:58:43;14.20;99.90
48666;DHT22;34452;50.796;4.994;2022-09-16T17:03:37;14.10;99.90
48666;DHT22;34452;50.796;4.994;2022-09-16T17:06:03;14.00;99.90
48666;DHT22;34452;50.796;4.994;2022-09-16T17:08:29;13.90;99.90
48666;DHT22;34452;50.796;4.994;2022-09-16T17:13:52;13.60;99.90
48666;DHT22;34452;50.796;4.994;2022-09-16T17:16:21;13.50;99.90
48666;DHT22;34452;50.796;4.994;2022-09-16T17:18:49;13.50;99.90
48666;DHT22;34452;50.796;4.994;2022-09-16T17:21:17;13.50;99.90
48666;DHT22;34452;50.796;4.994;2022-09-16T17:23:43;13.40;99.90
48666;DHT22;34452;50.796;4.994;2022-09-16T17:26:10;13.40;99.90
48666;DHT22;34452;50.796;4.994;2022-09-16T17:28:37;13.40;99.90
48666;DHT22;34452;50.796;4.994;2022-09-16T17:31:23;13.40;99.90
48666;DHT22;34452;50.796;4.994;2022-09-16T17:34:08;13.30;99.90
48666;DHT22;34452;50.796;4.994;2022-09-16T17:36:37;13.30;99.90
48666;DHT22;34452;50.796;4.994;2022-09-16T17:39:07;13.10;99.90
48666;DHT22;34452;50.796;4.994;2022-09-16T17:41:33;13.10;99.90
48666;DHT22;34452;50.796;4.994;2022-09-16T17:44:04;13.00;99.90
48666;DHT22;34452;50.796;4.994;2022-09-16T17:46:30;13.00;99.90
48666;DHT22;34452;50.796;4.994;2022-09-16T17:51:53;12.90;99.90
48666;DHT22;34452;50.796;4.994;2022-09-16T17:54:19;12.90;99.90
48666;DHT22;34452;50.796;4.994;2022-09-16T17:56:46;12.90;99.90
48666;DHT22;34452;50.796;4.994;2022-09-16T17:59:15;12.90;99.90
48666;DHT22;34452;50.796;4.994;2022-09-16T18:01:41;12.80;99.90
48666;DHT22;34452;50.796;4.994;2022-09-16T18:04:07;12.60;99.90
48666;DHT22;34452;50.796;4.994;2022-09-16T18:06:40;12.70;99.90
48666;DHT22;34452;50.796;4.994;2022-09-16T18:09:06;12.60;99.90
48666;DHT22;34452;50.796;4.994;2022-09-16T18:11:34;12.50;99.90
48666;DHT22;34452;50.796;4.994;2022-09-16T18:14:02;12.40;99.90
48666;DHT22;34452;50.796;4.994;2022-09-16T18:16:29;12.30;99.90
48666;DHT22;34452;50.796;4.994;2022-09-16T18:18:57;12.30;99.90
48666;DHT22;34452;50.796;4.994;2022-09-16T18:21:24;12.30;99.90
48666;DHT22;34452;50.796;4.994;2022-09-16T18:23:54;12.30;99.90
48666;DHT22;34452;50.796;4.994;2022-09-16T18:26:21;12.30;99.90
48666;DHT22;34452;50.796;4.994;2022-09-16T18:28:48;12.30;99.90
48666;DHT22;34452;50.796;4.994;2022-09-16T18:31:17;12.30;99.90
48666;DHT22;34452;50.796;4.994;2022-09-16T18:33:44;12.30;99.90
48666;DHT22;34452;50.796;4.994;2022-09-16T18:36:12;12.20;99.90
48666;DHT22;34452;50.796;4.994;2022-09-16T18:38:38;12.20;99.90
48666;DHT22;34452;50.796;4.994;2022-09-16T18:41:25;12.20;99.90
48666;DHT22;34452;50.796;4.994;2022-09-16T18:43:53;12.20;99.90
48666;DHT22;34452;50.796;4.994;2022-09-16T18:46:22;12.10;99.90
48666;DHT22;34452;50.796;4.994;2022-09-16T18:48:49;12.10;99.90
48666;DHT22;34452;50.796;4.994;2022-09-16T18:51:19;12.10;99.90
48666;DHT22;34452;50.796;4.994;2022-09-16T18:53:46;12.10;99.90
48666;DHT22;34452;50.796;4.994;2022-09-16T18:56:14;12.10;99.90
48666;DHT22;34452;50.796;4.994;2022-09-16T18:58:40;12.10;99.90
48666;DHT22;34452;50.796;4.994;2022-09-16T19:01:24;12.10;99.90
48666;DHT22;34452;50.796;4.994;2022-09-16T19:03:52;12.00;99.90
48666;DHT22;34452;50.796;4.994;2022-09-16T19:06:18;11.90;99.90
48666;DHT22;34452;50.796;4.994;2022-09-16T19:08:45;11.90;99.90
48666;DHT22;34452;50.796;4.994;2022-09-16T19:11:11;11.90;99.90
48666;DHT22;34452;50.796;4.994;2022-09-16T19:13:37;11.90;99.90